createdAt,value
2019-01-19T19:43:41.537Z,67.39
2019-01-19T19:46:26.054Z,66.20
2019-01-19T19:48:55.400Z,67.45
2019-01-19T19:51:33.434Z,66.59
2019-01-19T19:54:01.474Z,65.56
2019-01-19T19:56:28.702Z,65.23
2019-01-19T19:58:56.544Z,65.18
2019-01-19T20:01:24.487Z,66.07
2019-01-19T20:03:52.695Z,66.32
2019-01-19T20:06:20.607Z,67.08
2019-01-19T20:08:48.793Z,65.35
2019-01-19T20:11:16.679Z,65.04
2019-01-19T20:13:44.621Z,65.91
2019-01-19T20:16:12.710Z,65.99
2019-01-19T20:18:40.635Z,65.20
2019-01-19T20:21:08.477Z,66.23
2019-01-19T20:23:36.335Z,65.95
2019-01-19T20:26:07.547Z,66.97
2019-01-19T20:28:37.193Z,67.99
2019-01-19T20:31:04.967Z,68.13
2019-01-19T20:33:33.127Z,66.15
2019-01-19T20:36:02.669Z,67.36
2019-01-19T20:38:30.542Z,67.66
2019-01-19T20:40:58.609Z,66.91
2019-01-19T20:43:26.450Z,65.95
2019-01-19T20:45:54.348Z,66.11
2019-01-19T20:48:22.329Z,67.16
2019-01-19T20:50:50.303Z,67.15
2019-01-19T20:53:18.153Z,66.15
2019-01-19T20:55:46.113Z,64.06
2019-01-19T20:58:14.045Z,63.74
2019-01-19T21:00:41.945Z,63.39
2019-01-19T21:03:11.844Z,64.41
2019-01-19T21:05:39.513Z,64.15
2019-01-19T21:08:07.521Z,64.24
2019-01-19T21:10:37.541Z,63.54
2019-01-19T21:13:05.428Z,64.23
2019-01-19T21:15:33.406Z,63.55
2019-01-19T21:18:03.539Z,64.05
2019-01-19T21:20:31.077Z,64.02
2019-01-19T21:22:58.926Z,64.44
2019-01-19T21:25:26.934Z,64.96
2019-01-19T21:27:54.798Z,65.09
2019-01-19T21:30:23.181Z,64.75
2019-01-19T21:32:51.092Z,65.60
2019-01-19T21:35:18.942Z,65.26
2019-01-19T21:37:46.879Z,65.01
2019-01-19T21:40:14.768Z,66.55
2019-01-19T21:42:42.695Z,66.18
2019-01-19T21:45:22.423Z,66.02
2019-01-19T21:47:50.620Z,65.70
2019-01-19T21:50:18.413Z,65.90
2019-01-19T21:52:46.234Z,67.13
2019-01-19T21:55:14.098Z,67.24
2019-01-19T21:57:42.434Z,66.67
2019-01-19T22:00:11.931Z,65.02
2019-01-19T22:02:39.827Z,65.09
2019-01-19T22:05:07.992Z,65.58
2019-01-19T22:07:36.901Z,65.91
2019-01-19T22:10:08.512Z,65.64
2019-01-19T22:12:37.292Z,67.62
2019-01-19T22:15:09.048Z,67.79
2019-01-19T22:17:39.545Z,68.00
2019-01-19T22:20:10.879Z,68.38
2019-01-19T22:22:39.592Z,68.45
2019-01-19T22:25:08.701Z,69.27
2019-01-19T22:27:39.089Z,68.70
2019-01-19T22:30:10.726Z,68.69
2019-01-19T22:32:39.447Z,69.15
2019-01-19T22:35:09.562Z,69.15
2019-01-19T22:37:38.201Z,69.25
2019-01-19T22:40:09.929Z,69.25
2019-01-19T22:42:38.506Z,68.69
2019-01-19T22:45:09.761Z,68.87
2019-01-19T22:47:38.281Z,68.27
2019-01-19T22:50:09.815Z,69.17
2019-01-19T22:52:38.377Z,69.17
2019-01-19T22:55:07.152Z,69.17
2019-01-19T22:57:35.678Z,69.28
2019-01-19T23:00:25.651Z,70.03
2019-01-19T23:02:54.216Z,69.94
2019-01-19T23:05:22.640Z,69.77
2019-01-19T23:07:51.208Z,69.77
2019-01-19T23:10:19.678Z,70.44
2019-01-19T23:12:50.730Z,70.44
2019-01-19T23:15:19.511Z,69.96
2019-01-19T23:17:47.943Z,70.45
2019-01-19T23:20:16.450Z,70.74
2019-01-19T23:22:44.935Z,71.11
2019-01-19T23:25:13.455Z,71.06
2019-01-19T23:27:42.095Z,70.54
2019-01-19T23:30:13.955Z,70.78
2019-01-19T23:32:42.429Z,70.40
2019-01-19T23:35:11.027Z,70.40
2019-01-19T23:37:39.626Z,70.30
2019-01-19T23:40:11.680Z,70.30
2019-01-19T23:42:46.877Z,70.74
2019-01-19T23:45:11.517Z,71.15
2019-01-19T23:47:40.076Z,70.89
2019-01-19T23:50:10.542Z,71.50
2019-01-19T23:52:39.509Z,71.31
2019-01-19T23:55:08.457Z,71.05
2019-01-19T23:57:38.602Z,70.55
